createdAt,value
2022-08-05T00:01:28.633Z,101548.75
2022-08-05T00:03:57.158Z,101527.66
2022-08-05T00:06:32.494Z,101527.66
2022-08-05T00:08:58.375Z,101549.56
2022-08-05T00:11:34.846Z,101523.09
2022-08-05T00:14:00.577Z,101523.09
2022-08-05T00:16:35.467Z,101546.16
2022-08-05T00:19:03.626Z,101534.14
2022-08-05T00:21:36.013Z,101537.06
2022-08-05T00:24:10.279Z,101532.03
2022-08-05T00:26:38.470Z,101526.81
2022-08-05T00:29:08.245Z,101527.77
2022-08-05T00:31:54.290Z,101530.34
2022-08-05T00:34:53.547Z,101531.00
2022-08-05T00:37:12.908Z,101529.58
2022-08-05T00:39:14.305Z,101527.00
2022-08-05T00:41:54.885Z,101519.88
2022-08-05T00:44:18.240Z,101523.22
2022-08-05T00:46:54.291Z,101511.72
2022-08-05T00:49:21.526Z,101511.72
2022-08-05T00:51:52.400Z,101530.52
2022-08-05T00:54:22.877Z,101534.71
2022-08-05T00:56:54.347Z,101534.61
2022-08-05T00:59:24.490Z,101539.84
2022-08-05T01:01:54.309Z,101540.39
2022-08-05T01:04:26.847Z,101540.23
2022-08-05T01:06:55.635Z,101534.86
2022-08-05T01:09:25.469Z,101533.41
2022-08-05T01:12:04.775Z,101537.11
2022-08-05T01:14:39.873Z,101546.23
2022-08-05T01:17:25.710Z,101547.80
2022-08-05T01:20:03.581Z,101545.59
2022-08-05T01:22:57.305Z,101539.13
2022-08-05T01:25:59.875Z,101542.99
2022-08-05T01:28:35.510Z,101547.29
2022-08-05T01:31:44.564Z,101559.43
2022-08-05T01:34:26.757Z,101554.48
2022-08-05T01:37:05.187Z,101558.20
2022-08-05T01:39:46.048Z,101558.20
2022-08-05T01:42:13.863Z,101560.03
2022-08-05T01:44:54.309Z,101561.60
2022-08-05T01:47:21.577Z,101574.90
2022-08-05T01:50:02.296Z,101586.65
2022-08-05T01:52:27.797Z,101584.41
2022-08-05T01:55:00.921Z,101585.79
2022-08-05T01:58:18.772Z,101586.94
2022-08-05T02:00:11.559Z,101583.64
2022-08-05T02:02:46.549Z,101580.73
2022-08-05T02:05:15.645Z,101585.78
2022-08-05T02:07:56.308Z,101590.83
2022-08-05T02:10:18.085Z,101596.55
2022-08-05T02:12:55.788Z,101601.34
2022-08-05T02:15:33.513Z,101589.11
2022-08-05T02:18:31.766Z,101589.53
2022-08-05T02:20:55.551Z,101569.33
2022-08-05T02:23:30.095Z,101569.33
2022-08-05T02:26:04.313Z,101579.03
2022-08-05T02:28:41.673Z,101581.12
2022-08-05T02:31:22.351Z,101583.22
2022-08-05T02:33:57.207Z,101563.59
2022-08-05T02:36:31.676Z,101563.59
2022-08-05T02:39:01.142Z,101561.50
2022-08-05T02:41:42.819Z,101555.64
2022-08-05T02:44:13.527Z,101554.42
2022-08-05T02:46:53.286Z,101563.48
2022-08-05T02:49:18.601Z,101560.31
2022-08-05T02:52:04.471Z,101555.33
2022-08-05T02:54:36.374Z,101549.73
2022-08-05T02:56:55.935Z,101560.56
2022-08-05T02:59:27.834Z,101587.95
2022-08-05T03:02:00.569Z,101595.63
2022-08-05T03:04:30.788Z,101587.64
2022-08-05T03:07:00.708Z,101579.73
2022-08-05T03:09:38.196Z,101591.41
2022-08-05T03:12:02.894Z,101584.55
2022-08-05T03:14:32.961Z,101585.71
2022-08-05T03:17:07.334Z,101580.79
2022-08-05T03:19:36.114Z,101579.72
2022-08-05T03:22:16.380Z,101560.77
2022-08-05T03:24:38.304Z,101558.94
2022-08-05T03:27:08.260Z,101568.05
2022-08-05T03:29:45.821Z,101559.25
2022-08-05T03:32:14.347Z,101554.75
2022-08-05T03:34:50.820Z,101552.89
2022-08-05T03:37:17.530Z,101560.61
2022-08-05T03:39:59.096Z,101553.65
2022-08-05T03:42:31.991Z,101549.13
2022-08-05T03:45:01.500Z,101552.98
2022-08-05T03:47:35.462Z,101564.20
2022-08-05T03:50:03.792Z,101564.77
2022-08-05T03:55:11.370Z,101563.53
2022-08-05T03:56:05.518Z,101570.17
2022-08-05T03:57:46.703Z,101581.61
2022-08-05T04:00:17.251Z,101586.22
2022-08-05T04:02:57.777Z,101581.38
2022-08-05T04:05:23.104Z,101573.41
2022-08-05T04:07:57.995Z,101570.36
2022-08-05T04:10:24.517Z,101574.08
2022-08-05T04:12:58.888Z,101566.03
2022-08-05T04:15:32.969Z,101552.13
2022-08-05T04:18:03.797Z,101552.89
2022-08-05T04:20:35.268Z,101548.94
2022-08-05T04:23:05.476Z,101539.53
2022-08-05T04:25:56.592Z,101542.59
2022-08-05T04:28:11.351Z,101551.58
2022-08-05T04:30:39.593Z,101564.34
2022-08-05T04:33:09.429Z,101553.97
2022-08-05T04:36:11.276Z,101553.97
2022-08-05T04:38:12.030Z,101581.86
2022-08-05T04:40:47.881Z,101580.02
2022-08-05T04:43:16.482Z,101589.92
2022-08-05T04:45:48.953Z,101594.34
2022-08-05T04:48:18.482Z,101596.11
2022-08-05T04:51:03.237Z,101611.59
2022-08-05T04:53:22.713Z,101611.59
2022-08-05T04:56:32.979Z,101608.86
2022-08-05T04:58:24.324Z,101600.43
2022-08-05T05:00:54.166Z,101605.10
2022-08-05T05:03:23.960Z,101605.27
2022-08-05T05:06:35.868Z,101602.42
2022-08-05T05:08:29.968Z,101587.45
2022-08-05T05:10:56.796Z,101587.45
2022-08-05T05:13:26.640Z,101602.02
2022-08-05T05:16:02.193Z,101606.66
2022-08-05T05:18:33.166Z,101604.97
2022-08-05T05:21:00.793Z,101599.55
2022-08-05T05:23:39.407Z,101599.55
2022-08-05T05:26:02.096Z,101599.99
2022-08-05T05:28:34.289Z,101603.83
2022-08-05T05:31:05.615Z,101601.73
2022-08-05T05:33:59.696Z,101583.17
2022-08-05T05:36:08.438Z,101583.17
2022-08-05T05:38:40.083Z,101579.73
2022-08-05T05:41:12.213Z,101579.73
2022-08-05T05:43:57.502Z,101604.89
2022-08-05T05:46:17.530Z,101603.11
2022-08-05T05:48:48.192Z,101610.95
2022-08-05T05:51:23.724Z,101614.50
2022-08-05T05:53:58.604Z,101605.34
2022-08-05T05:56:32.732Z,101608.03
2022-08-05T05:58:58.675Z,101618.00
2022-08-05T06:01:36.951Z,101625.92
2022-08-05T06:04:03.712Z,101632.42
2022-08-05T06:06:34.775Z,101635.19
2022-08-05T06:09:08.360Z,101638.28
2022-08-05T06:11:39.375Z,101632.39
2022-08-05T06:14:11.449Z,101634.39
2022-08-05T06:16:41.216Z,101629.95
2022-08-05T06:19:12.745Z,101635.62
2022-08-05T06:21:49.742Z,101632.98
2022-08-05T06:24:16.558Z,101639.95
2022-08-05T06:26:51.241Z,101641.07
2022-08-05T06:29:42.982Z,101634.92
2022-08-05T06:31:51.079Z,101637.93
2022-08-05T06:34:20.921Z,101640.34
2022-08-05T06:36:57.566Z,101638.34
2022-08-05T06:39:22.328Z,101645.29
2022-08-05T06:41:53.712Z,101651.33
2022-08-05T06:44:23.176Z,101648.64
2022-08-05T06:46:54.346Z,101641.58
2022-08-05T06:50:02.017Z,101644.27
2022-08-05T06:51:57.087Z,101643.16
2022-08-05T06:54:28.266Z,101655.45
2022-08-05T06:57:58.118Z,101657.25
2022-08-05T06:59:30.858Z,101655.70
2022-08-05T07:02:02.331Z,101666.83
2022-08-05T07:04:32.102Z,101666.83
2022-08-05T07:07:02.461Z,101666.83
2022-08-05T07:09:37.359Z,101671.34
2022-08-05T07:12:06.641Z,101665.46
2022-08-05T07:14:54.105Z,101674.25
2022-08-05T07:17:59.459Z,101669.23
2022-08-05T07:22:30.156Z,101696.20
2022-08-05T07:25:23.028Z,101699.59
2022-08-05T07:28:00.680Z,101706.27
2022-08-05T07:30:22.331Z,101703.98
2022-08-05T07:32:38.776Z,101704.88
2022-08-05T07:36:02.517Z,101696.63
2022-08-05T07:37:47.240Z,101686.47
2022-08-05T07:40:26.623Z,101686.47
2022-08-05T07:42:49.184Z,101708.05
2022-08-05T07:45:56.639Z,101712.70
2022-08-05T07:47:55.807Z,101712.16
2022-08-05T07:50:28.854Z,101705.96
2022-08-05T07:52:56.054Z,101714.84
2022-08-05T07:55:44.335Z,101717.58
2022-08-05T07:58:03.061Z,101719.23
2022-08-05T08:00:29.641Z,101722.67
2022-08-05T08:03:14.960Z,101731.30
2022-08-05T08:05:30.733Z,101726.19
2022-08-05T08:08:03.278Z,101712.58
2022-08-05T08:10:32.750Z,101718.56
2022-08-05T08:13:02.456Z,101711.56
2022-08-05T08:16:33.505Z,101711.56
2022-08-05T08:18:13.723Z,101717.23
2022-08-05T08:20:45.220Z,101718.67
2022-08-05T08:23:11.577Z,101725.63
2022-08-05T08:26:00.197Z,101733.33
2022-08-05T08:28:18.249Z,101743.89
2022-08-05T08:30:47.862Z,101745.00
2022-08-05T08:33:16.249Z,101742.92
2022-08-05T08:35:52.741Z,101731.78
2022-08-05T08:38:17.435Z,101731.78
2022-08-05T08:40:51.693Z,101744.38
2022-08-05T08:45:17.947Z,101752.45
2022-08-05T08:45:55.233Z,101763.58
2022-08-05T08:49:03.251Z,101760.19
2022-08-05T08:51:22.115Z,101758.02
2022-08-05T08:53:31.410Z,101758.56
2022-08-05T08:56:06.028Z,101760.23
2022-08-05T08:58:37.578Z,101764.17
2022-08-05T09:01:11.092Z,101779.46
2022-08-05T09:03:45.300Z,101777.43
2022-08-05T09:06:18.512Z,101787.75
2022-08-05T09:08:44.509Z,101788.52
2022-08-05T09:11:14.994Z,101782.95
2022-08-05T09:14:10.359Z,101788.16
2022-08-05T09:16:16.868Z,101796.36
2022-08-05T09:18:48.515Z,101800.66
2022-08-05T09:21:21.261Z,101802.73
2022-08-05T09:23:52.775Z,101802.41
2022-08-05T09:26:23.187Z,101798.17
2022-08-05T09:28:57.310Z,101806.83
2022-08-05T09:32:42.167Z,101807.14
2022-08-05T09:34:01.775Z,101784.58
2022-08-05T09:36:55.716Z,101784.58
2022-08-05T09:39:21.985Z,101803.98
2022-08-05T09:41:59.939Z,101804.36
2022-08-05T09:44:38.773Z,101802.67
2022-08-05T09:47:17.337Z,101806.59
2022-08-05T09:50:01.503Z,101809.67
2022-08-05T09:52:31.167Z,101807.17
2022-08-05T09:55:06.418Z,101805.46
2022-08-05T09:57:45.151Z,101808.73
2022-08-05T10:00:19.270Z,101812.55
2022-08-05T10:02:51.866Z,101804.16
2022-08-05T10:05:24.419Z,101809.95
2022-08-05T10:08:35.823Z,101802.09
2022-08-05T10:10:34.782Z,101817.41
2022-08-05T10:13:09.688Z,101822.00
2022-08-05T10:15:41.663Z,101821.72
2022-08-05T10:18:23.600Z,101821.04
2022-08-05T10:20:56.586Z,101816.00
2022-08-05T10:23:59.052Z,101826.61
2022-08-05T10:26:14.261Z,101820.19
2022-08-05T10:28:45.036Z,101820.75
2022-08-05T10:32:47.910Z,101827.00
2022-08-05T10:33:52.291Z,101824.64
2022-08-05T10:36:23.767Z,101824.64
2022-08-05T10:38:55.008Z,101843.59
2022-08-05T10:41:27.972Z,101837.37
2022-08-05T10:44:07.724Z,101844.77
2022-08-05T10:46:54.535Z,101837.34
2022-08-05T10:49:33.078Z,101843.78
2022-08-05T10:52:00.647Z,101849.48
2022-08-05T10:54:57.012Z,101846.05
2022-08-05T10:57:30.982Z,101852.26
2022-08-05T11:00:20.485Z,101840.77
2022-08-05T11:03:25.858Z,101840.77
2022-08-05T11:05:41.490Z,101864.07
2022-08-05T11:08:34.330Z,101868.52
2022-08-05T11:10:50.397Z,101864.92
2022-08-05T11:13:19.174Z,101864.92
2022-08-05T11:16:00.937Z,101877.95
2022-08-05T11:18:34.275Z,101884.56
2022-08-05T11:21:12.019Z,101881.52
2022-08-05T11:24:04.787Z,101894.77
2022-08-05T11:26:28.710Z,101894.77
2022-08-05T11:29:06.722Z,101892.96
2022-08-05T11:31:56.930Z,101900.58
2022-08-05T11:34:08.277Z,101893.94
2022-08-05T11:36:47.163Z,101896.98
2022-08-05T11:39:38.149Z,101895.10
2022-08-05T11:42:11.457Z,101896.99
2022-08-05T11:44:54.133Z,101910.18
2022-08-05T11:47:19.935Z,101906.97
2022-08-05T11:49:50.915Z,101914.28
2022-08-05T11:52:31.007Z,101913.10
2022-08-05T11:55:07.555Z,101919.11
2022-08-05T11:58:08.074Z,101919.39
2022-08-05T12:00:08.429Z,101921.95
2022-08-05T12:02:40.165Z,101925.13
2022-08-05T12:05:18.082Z,101924.03
2022-08-05T12:08:09.295Z,101929.66
2022-08-05T12:10:17.816Z,101935.17
2022-08-05T12:12:59.536Z,101938.65
2022-08-05T12:15:38.256Z,101948.73
2022-08-05T12:18:03.041Z,101949.50
2022-08-05T12:20:33.737Z,101951.90
2022-08-05T12:25:56.963Z,101964.20
2022-08-05T12:28:37.591Z,101965.02
2022-08-05T12:31:07.536Z,101974.45
2022-08-05T12:33:38.914Z,101970.62
2022-08-05T12:36:11.321Z,101979.37
2022-08-05T12:38:41.617Z,101973.64
2022-08-05T12:41:14.781Z,101981.22
2022-08-05T12:43:55.046Z,101981.78
2022-08-05T12:46:29.363Z,101989.83
2022-08-05T12:49:05.702Z,101984.59
2022-08-05T12:52:13.117Z,101990.16
2022-08-05T12:54:14.892Z,101991.57
2022-08-05T12:56:45.186Z,101996.26
2022-08-05T12:59:46.477Z,101998.20
2022-08-05T13:02:07.945Z,102001.52
2022-08-05T13:04:41.813Z,102007.58
2022-08-05T13:07:19.497Z,102012.64
2022-08-05T13:09:56.995Z,102014.73
2022-08-05T13:12:28.409Z,102021.03
2022-08-05T13:15:05.709Z,102015.48
2022-08-05T13:17:41.810Z,102021.38
2022-08-05T13:20:09.316Z,102022.28
2022-08-05T13:22:46.322Z,102022.67
2022-08-05T13:25:21.959Z,102016.43
2022-08-05T13:27:52.791Z,102019.58
2022-08-05T13:30:32.957Z,102018.81
2022-08-05T13:32:57.203Z,102022.83
2022-08-05T13:35:42.505Z,102022.16
2022-08-05T13:38:04.866Z,102015.33
2022-08-05T13:40:49.950Z,102017.44
2022-08-05T13:43:03.172Z,102022.92
2022-08-05T13:45:38.692Z,102014.11
2022-08-05T13:48:08.761Z,102032.17
2022-08-05T13:50:39.424Z,102025.06
2022-08-05T13:53:15.997Z,102026.28
2022-08-05T13:55:50.118Z,102032.59
2022-08-05T13:58:13.074Z,102032.03
2022-08-05T14:00:44.529Z,102033.44
2022-08-05T14:03:16.122Z,102043.80
2022-08-05T14:06:24.529Z,102046.13
2022-08-05T14:08:20.155Z,102038.27
2022-08-05T14:10:49.676Z,102044.23
2022-08-05T14:13:19.439Z,102032.28
2022-08-05T14:16:08.353Z,102032.28
2022-08-05T14:18:23.043Z,102054.70
2022-08-05T14:20:54.829Z,102053.07
2022-08-05T14:23:28.078Z,102061.45
2022-08-05T14:25:59.576Z,102069.12
2022-08-05T14:28:30.660Z,102067.58
2022-08-05T14:31:01.518Z,102069.98
2022-08-05T14:33:56.322Z,102064.25
2022-08-05T14:36:05.747Z,102072.70
2022-08-05T14:38:37.194Z,102081.67
2022-08-05T14:41:08.178Z,102077.92
2022-08-05T14:43:59.519Z,102094.41
2022-08-05T14:46:10.906Z,102081.91
2022-08-05T14:48:41.447Z,102087.73
2022-08-05T14:51:11.312Z,102083.12
2022-08-05T14:53:44.383Z,102081.32
2022-08-05T14:56:14.080Z,102087.64
2022-08-05T14:58:47.809Z,102079.00
2022-08-05T15:01:16.272Z,102094.13
2022-08-05T15:03:46.589Z,102095.22
2022-08-05T15:06:17.750Z,102091.91
2022-08-05T15:08:58.656Z,102090.25
2022-08-05T15:11:20.691Z,102092.02
2022-08-05T15:13:52.162Z,102077.41
2022-08-05T15:16:22.707Z,102077.41
2022-08-05T15:18:52.660Z,102098.67
2022-08-05T15:21:22.530Z,102094.02
2022-08-05T15:23:54.086Z,102102.22
2022-08-05T15:26:32.120Z,102077.48
2022-08-05T15:28:55.245Z,102077.48
2022-08-05T15:31:24.778Z,102096.05
2022-08-05T15:34:18.593Z,102096.80
2022-08-05T15:36:27.686Z,102094.31
2022-08-05T15:40:40.991Z,102105.19
2022-08-05T15:41:57.451Z,102104.94
2022-08-05T15:44:00.657Z,102105.89
2022-08-05T15:46:30.961Z,102101.25
2022-08-05T15:49:09.900Z,102101.25
2022-08-05T15:52:10.406Z,102084.46
2022-08-05T15:54:08.407Z,102103.29
2022-08-05T15:56:36.374Z,102103.22
2022-08-05T15:59:06.424Z,102106.94
2022-08-05T16:01:39.457Z,102110.94
2022-08-05T16:04:10.432Z,102097.98
2022-08-05T16:06:40.362Z,102115.44
2022-08-05T16:09:10.608Z,102125.71
2022-08-05T16:11:43.373Z,102123.13
2022-08-05T16:14:17.105Z,102127.19
2022-08-05T16:16:44.072Z,102131.91
2022-08-05T16:19:25.590Z,102139.06
2022-08-05T16:22:00.220Z,102130.77
2022-08-05T16:24:40.259Z,102141.30
2022-08-05T16:26:54.460Z,102135.36
2022-08-05T16:29:26.549Z,102136.50
2022-08-05T16:31:57.779Z,102134.99
2022-08-05T16:34:28.034Z,102139.20
2022-08-05T16:36:57.807Z,102143.88
2022-08-05T16:40:04.463Z,102144.77
2022-08-05T16:42:15.769Z,102146.61
2022-08-05T16:44:31.536Z,102148.91
2022-08-05T16:47:01.346Z,102153.16
2022-08-05T16:49:31.184Z,102156.31
2022-08-05T16:52:01.262Z,102162.14
2022-08-05T16:54:33.111Z,102165.53
2022-08-05T16:57:03.054Z,102166.00
2022-08-05T16:59:34.516Z,102165.66
2022-08-05T17:02:08.155Z,102176.77
2022-08-05T17:04:40.416Z,102179.34
2022-08-05T17:07:11.444Z,102180.73
2022-08-05T17:09:57.844Z,102192.13
2022-08-05T17:12:13.589Z,102186.61
2022-08-05T17:14:45.074Z,102188.37
2022-08-05T17:17:15.425Z,102187.11
2022-08-05T17:19:46.402Z,102194.92
2022-08-05T17:22:17.823Z,102189.97
2022-08-05T17:24:57.009Z,102192.48
2022-08-05T17:27:19.896Z,102198.66
2022-08-05T17:29:59.490Z,102202.44
2022-08-05T17:32:21.525Z,102207.13
2022-08-05T17:34:53.069Z,102205.45
2022-08-05T17:37:40.066Z,102207.69
2022-08-05T17:39:55.182Z,102210.23
2022-08-05T17:42:32.383Z,102217.81
2022-08-05T17:44:58.159Z,102229.59
2022-08-05T17:47:28.259Z,102230.77
2022-08-05T17:50:10.457Z,102229.78
2022-08-05T17:52:31.336Z,102234.43
2022-08-05T17:55:03.095Z,102240.16
2022-08-05T17:57:33.011Z,102242.50
2022-08-05T18:00:05.785Z,102255.37
2022-08-05T18:02:35.410Z,102252.56
2022-08-05T18:05:07.951Z,102260.41
2022-08-05T18:07:42.228Z,102261.19
2022-08-05T18:10:20.436Z,102267.49
2022-08-05T18:12:44.218Z,102273.25
2022-08-05T18:15:15.410Z,102268.08
2022-08-05T18:18:01.415Z,102278.69
2022-08-05T18:20:16.493Z,102284.81
2022-08-05T18:22:54.845Z,102266.81
2022-08-05T18:25:18.171Z,102292.72
2022-08-05T18:27:52.599Z,102290.59
2022-08-05T18:30:19.928Z,102290.27
2022-08-05T18:32:53.322Z,102300.41
2022-08-05T18:35:49.366Z,102300.48
2022-08-05T18:37:52.776Z,102310.92
2022-08-05T18:40:34.071Z,102311.80
2022-08-05T18:42:56.631Z,102313.33
2022-08-05T18:45:41.847Z,102317.92
2022-08-05T18:47:58.496Z,102317.92
2022-08-05T18:50:47.177Z,102323.66
2022-08-05T18:53:22.207Z,102320.78
2022-08-05T18:55:48.372Z,102321.37
2022-08-05T18:58:18.606Z,102324.34
2022-08-05T19:00:49.897Z,102328.16
2022-08-05T19:03:19.662Z,102332.34
2022-08-05T19:06:12.764Z,102336.32
2022-08-05T19:08:30.759Z,102335.59
2022-08-05T19:10:55.120Z,102343.92
2022-08-05T19:13:25.809Z,102343.69
2022-08-05T19:16:03.630Z,102345.68
2022-08-05T19:18:28.863Z,102363.08
2022-08-05T19:20:59.505Z,102361.83
2022-08-05T19:24:08.091Z,102362.37
2022-08-05T19:26:03.144Z,102373.68
2022-08-05T19:28:34.554Z,102372.59
2022-08-05T19:31:05.738Z,102375.53
2022-08-05T19:33:37.626Z,102378.44
2022-08-05T19:36:11.500Z,102386.88
2022-08-05T19:38:43.797Z,102388.06
2022-08-05T19:41:13.750Z,102392.02
2022-08-05T19:44:06.429Z,102391.63
2022-08-05T19:46:16.672Z,102398.03
2022-08-05T19:48:48.415Z,102401.93
2022-08-05T19:51:59.797Z,102400.55
2022-08-05T19:54:04.242Z,102407.58
2022-08-05T19:56:21.245Z,102411.56
2022-08-05T19:58:54.054Z,102411.53
2022-08-05T20:01:28.527Z,102419.89
2022-08-05T20:03:55.873Z,102417.59
2022-08-05T20:06:29.296Z,102419.87
2022-08-05T20:09:00.871Z,102421.80
2022-08-05T20:11:30.032Z,102423.62
2022-08-05T20:14:12.762Z,102427.97
2022-08-05T20:16:34.106Z,102429.72
2022-08-05T20:19:04.232Z,102429.22
2022-08-05T20:21:34.062Z,102429.22
2022-08-05T20:24:07.163Z,102428.14
2022-08-05T20:26:38.627Z,102431.48
2022-08-05T20:29:08.415Z,102445.68
2022-08-05T20:31:51.281Z,102446.98
2022-08-05T20:34:12.704Z,102447.63
2022-08-05T20:36:43.431Z,102457.42
2022-08-05T20:39:16.790Z,102456.45
2022-08-05T20:41:47.885Z,102464.23
2022-08-05T20:44:29.592Z,102464.37
2022-08-05T20:46:49.892Z,102460.87
2022-08-05T20:49:24.454Z,102463.84
2022-08-05T20:51:54.025Z,102468.52
2022-08-05T20:54:43.673Z,102471.18
2022-08-05T20:57:01.040Z,102469.62
2022-08-05T21:00:10.351Z,102469.73
2022-08-05T21:02:05.218Z,102468.20
2022-08-05T21:04:36.998Z,102479.95
2022-08-05T21:07:08.978Z,102483.70
2022-08-05T21:09:53.498Z,102478.17
2022-08-05T21:12:11.971Z,102481.16
2022-08-05T21:14:42.078Z,102480.85
2022-08-05T21:17:13.664Z,102479.47
2022-08-05T21:19:47.889Z,102489.14
2022-08-05T21:22:14.965Z,102489.14
2022-08-05T21:24:48.921Z,102494.56
2022-08-05T21:27:18.223Z,102496.48
2022-08-05T21:29:50.908Z,102497.77
2022-08-05T21:32:20.819Z,102497.53
2022-08-05T21:35:06.688Z,102494.98
2022-08-05T21:37:23.941Z,102493.82
2022-08-05T21:39:53.821Z,102502.10
2022-08-05T21:42:41.458Z,102504.34
2022-08-05T21:44:55.086Z,102504.19
2022-08-05T21:47:55.273Z,102506.53
2022-08-05T21:50:01.266Z,102506.73
2022-08-05T21:52:30.386Z,102513.30
2022-08-05T21:55:06.996Z,102510.74
2022-08-05T21:57:32.889Z,102513.36
2022-08-05T22:00:05.942Z,102510.44
2022-08-05T22:02:37.880Z,102514.05
2022-08-05T22:05:09.096Z,102523.47
2022-08-05T22:07:58.401Z,102525.67
2022-08-05T22:10:12.263Z,102528.23
2022-08-05T22:12:44.761Z,102540.44
2022-08-05T22:15:16.575Z,102535.32
2022-08-05T22:17:48.808Z,102536.36
2022-08-05T22:20:19.251Z,102534.84
2022-08-05T22:23:16.758Z,102540.67
2022-08-05T22:26:09.977Z,102540.67
2022-08-05T22:28:29.430Z,102546.05
2022-08-05T22:31:02.355Z,102541.17
2022-08-05T22:33:55.818Z,102547.42
2022-08-05T22:36:02.150Z,102542.79
2022-08-05T22:38:33.126Z,102542.79
2022-08-05T22:41:09.607Z,102547.81
2022-08-05T22:43:36.736Z,102545.76
2022-08-05T22:46:13.043Z,102544.70
2022-08-05T22:48:40.126Z,102555.30
2022-08-05T22:51:16.085Z,102558.74
2022-08-05T22:53:42.838Z,102560.33
2022-08-05T22:56:14.055Z,102557.08
2022-08-05T22:58:43.769Z,102567.66
2022-08-05T23:01:13.743Z,102572.00
2022-08-05T23:03:57.665Z,102569.16
2022-08-05T23:06:15.135Z,102569.20
2022-08-05T23:08:46.575Z,102569.45
2022-08-05T23:11:18.042Z,102567.33
2022-08-05T23:13:48.505Z,102570.19
2022-08-05T23:16:26.182Z,102575.05
2022-08-05T23:18:52.858Z,102578.36
2022-08-05T23:21:24.609Z,102571.16
2022-08-05T23:23:56.053Z,102571.16
2022-08-05T23:26:25.869Z,102576.95
2022-08-05T23:28:57.222Z,102577.36
2022-08-05T23:31:28.487Z,102580.69
2022-08-05T23:34:06.170Z,102581.53
2022-08-05T23:36:38.389Z,102586.05
2022-08-05T23:39:03.713Z,102589.72
2022-08-05T23:41:34.392Z,102591.50
2022-08-05T23:44:08.650Z,102590.05
2022-08-05T23:46:39.375Z,102595.23
2022-08-05T23:49:16.054Z,102593.95
2022-08-05T23:51:58.661Z,102595.88
2022-08-05T23:54:36.354Z,102605.91
2022-08-05T23:57:03.539Z,102609.59
2022-08-05T23:59:37.561Z,102612.27
